CheckWX is a tool to help pilots better visualize weather data.  It is not intended as a substitute for an official pre-flight weather briefing.

18:31:30 UTC

KINF METAR
Inverness Airport
Inverness, Florida, USA
Current

37 mins ago

KINF 251755Z AUTO 02004KT 7SM BKN039 BKN050 33/25 A2997 RMK AO2
Observed
Aug-25 @ 17:55 UTC
Wind
  • 020° at 4 KTS
Visibility
7 SM
Flight Rules
VFR
Cloud Levels
  • Broken at 3,900' AGL
  • Broken at 5,000' AGL
Temperature
33°C / 91°F
Dewpoint
25°C / 77°F
Heat Index
40°C / 104°F
Humidity
63%
Altimeter
29.97" Hg
Pressure
1014.92 hPa
Previous

57 mins ago

KINF 251735Z AUTO 02006KT 10SM BKN037 BKN049 33/25 A2998 RMK AO2
Observed
Aug-25 @ 17:35 UTC
Wind
  • 020° at 6 KTS
Visibility
10 SM
Flight Rules
VFR
Cloud Levels
  • Broken at 3,700' AGL
  • Broken at 4,900' AGL
Temperature
33°C / 91°F
Dewpoint
25°C / 77°F
Heat Index
40°C / 104°F
Humidity
63%
Altimeter
29.98" Hg
Pressure
1015.22 hPa
Previous

1 hour ago

KINF 251715Z AUTO 02005KT 7SM BKN037 BKN045 BKN049 32/25 A2998 RMK AO2
Observed
Aug-25 @ 17:15 UTC
Wind
  • 020° at 5 KTS
Visibility
7 SM
Flight Rules
VFR
Cloud Levels
  • Broken at 3,700' AGL
  • Broken at 4,500' AGL
  • Broken at 4,900' AGL
Temperature
32°C / 90°F
Dewpoint
25°C / 77°F
Heat Index
40°C / 104°F
Humidity
67%
Altimeter
29.98" Hg
Pressure
1015.22 hPa